Franklin, Tennessee
Current Conditions -  °F | °C
As of 11:53 AM on Friday 21 Nov 2014 (Local Time) from KBNA Reporting Station
Clear Clear  
Wind Chill: 47°   Ceiling: Unl
Heat Index: 47°   Visibility: 10mi
Dew Point: 21°   Wind: 3mph
Humidity: 36%   Direction: 110°ESE
Pressure: 30.44"   Gusts: NA
Location:  35.92°N, 86.87°W
Report Text: KBNA 211753Z 11003KT 10SM CLR 08/M06 A3044 RMK AO2 SLP311 T00831061 10089 21006 58009
Loading
Personal Weather Stations






























Interactive Weather Map New forecast layout! Learn more

10-Day Weather Forecast

Advertisements
Track Severe Weather on mobile